Gainesville, GA

6:24 PM EDT en Septiembre 23, 2014 (GMT -0400)
KGAGAINE13 | Change Station
CLOSE
Current Station
Estación meteorológica personal
Location: Gainesville, GA
Altura: 1088 ft
Estaciones meteorológicas cercanas

Alt 1088 ft 34.34 °N, 83.86 °W | Updated 1 second ago

Clear
Despejado
69.4 ° F
Sensación térmica 69.4 ° F
N
7.0
Viento Variable Viento desde ENE
Gusts 15.0 mph

Hoy
Alta -- | Baja -- ° F
--% Posibilidad de precipitaciones
Ayer
Alta -- | Baja -- ° F
Precip. -- pul
7:24 AM 7:30 PM
Creciente menguante, 0% visible
Presión 30.21 pul
Visibilidad 10.0 Millas
Nubes Despejado
Punto de rocío 56 ° F
Humedad 63%
Precipitaciones 0.00 pul
Espesor de la nieve No disponible.
UV 1 de una escala de 12
Polen 7.80 de una escala de 12
Calidad del aire No disponible.
Flu Activity No disponible.
METAR KGVL 232153Z AUTO 08011G18KT 10SM CLR 21/13 A3024 RMK AO2 SLP229 T02110128

More Conditions Fewer Conditions

Presión 30.21 pul
Visibilidad 10.0 Millas
Nubes Despejado
Punto de rocío 56 ° F
Humedad 63%
Precipitaciones 0.00 pul
Espesor de la nieve No disponible.
UV 1 de una escala de 12
Polen 7.80 de una escala de 12
Calidad del aire No disponible.
Flu Activity No disponible.
METAR KGVL 232153Z AUTO 08011G18KT 10SM CLR 21/13 A3024 RMK AO2 SLP229 T02110128

More Conditions Fewer Conditions

10-Day Weather Forecast

Almanac

Astronomía

Sep. 23, 2014 Salida Puesta
Hora real 7:24 AM EDT 7:30 PM EDT
Crepúsculo civil 6:59 AM EDT 7:55 PM EDT
Crepúsculo náutico 6:29 AM EDT 8:24 PM EDT
Crepúsculo astronómico 6:00 AM EDT 8:54 PM EDT
Luna 6:47 AM EDT 7:09 PM EDT
Horas de luz 12h 56m
Horas de luz
12h 06m
Tomorrow will be 2m 7s shorter.
Creciente menguante, 0% of the Moon is Illuminated
Hoy
Creciente menguante
Sep 24
Nueva
Oct 1
Cuarto creciente
Oct 8
Luna llena
Oct 15
Cuarto menguante

Extremos de hoy

Máximos del estado Bajos del estado

Community

WunderPhotos

Upload Photos

1,755,801 ¡fotos cargadas!

WunderBlogs® & News

Nearby

Grosos de nieve

Estación Profundido Altura
No tenemos constancia de nieve nueva.

Actividad de terremotos

Ciudad Distance Mag. Tiempo y dato
No hay informes recientes de la actividad sísmica.
Magnitud mínima muestra es 2,5.

Temperaturas de aguas costeras

Lugar Temperatura
Sin partes meteorológicos de las estaciones

Estaciones meteorológicas cercanas